Flight Track Log - Related Links

Times and Time Zones

All times are in EST time to prevent confusion due to time zone crossing. See the UAL4770 flight status page for this flight to view local times or setup timezone preferences in your user account.

Time Position Orientation Groundspeed Altitude Reporting Facility
EST Latitude Longitude Course Direction KTS MPH feet Rate Location/Type
Fri 07:22:36 PM 43.1092 -77.6853 214° Southwest 116 133 1,300  Level Cleveland Center
Fri 07:22:54 PM 43.0994 -77.6942 220° Southwest 117 135 1,900 1,701 Climbing Cleveland Center
Fri 07:23:43 PM 43.0819 -77.7075 209° Southwest 119 137 3,200 1,855 Climbing Cleveland Center
Fri 07:24:44 PM 43.0531 -77.6625 131° Southeast 168 193 5,300 1,610 Climbing Cleveland Center
Fri 07:25:46 PM 43.0361 -77.6000 110° East 187 215 6,500 1,210 Climbing Cleveland Center
Fri 07:26:48 PM 43.0028 -77.5058 116° Southeast 221 254 7,800 1,512 Climbing Cleveland Center
Fri 07:27:49 PM 42.9728 -77.4197 115° Southeast 244 281 9,600 1,951 Climbing Cleveland Center
Fri 07:28:51 PM 42.9467 -77.3408 114° Southeast 221 254 11,800 1,645 Climbing Cleveland Center
Fri 07:29:53 PM 42.9217 -77.2725 117° Southeast 217 250 13,000 585 Climbing Cleveland Center
Fri 07:30:54 PM 42.8900 -77.1825 116° Southeast 255 293 13,000  Level Cleveland Center
Fri 07:31:56 PM 42.8547 -77.0806 115° Southeast 292 336 13,000  Level Cleveland Center
Fri 07:32:58 PM 42.8189 -76.9781 115° Southeast 295 339 13,000  Level Cleveland Center
Fri 07:33:57 PM 42.7767 -76.8819 121° Southeast 295 339 13,000  Level Boston Center
Fri 07:34:58 PM 42.7322 -76.7861 122° Southeast 299 344 13,000  Level Boston Center
Fri 07:35:59 PM 42.6914 -76.6903 120° Southeast 295 339 13,000  Level Boston Center
Fri 07:37:00 PM 42.6483 -76.5947 121° Southeast 295 339 13,000  Level Boston Center
Fri 07:38:02 PM 42.5964 -76.4794 121° Southeast 299 344 13,000  Level Boston Center
Fri 07:39:03 PM 42.5536 -76.3853 122° Southeast 296 341 13,000  Level Boston Center
Fri 07:40:04 PM 42.5125 -76.2908 121° Southeast 292 336 13,000  Level Boston Center
Fri 07:41:05 PM 42.4689 -76.1964 122° Southeast 294 338 13,000  Level Boston Center
Fri 07:42:06 PM 42.4267 -76.1036 122° Southeast 293 337 13,000  Level Boston Center
Fri 07:43:08 PM 42.3842 -76.0081 121° Southeast 295 339 13,000  Level Boston Center
Fri 07:44:09 PM 42.3414 -75.9161 122° Southeast 293 337 13,000  Level Boston Center
Fri 07:45:10 PM 42.2994 -75.8233 121° Southeast 292 336 13,000  Level Boston Center
Fri 07:46:11 PM 42.2592 -75.7361 122° Southeast 289 333 13,000  Level Boston Center
Fri 07:47:12 PM 42.2078 -75.6247 122° Southeast 291 335 13,000  Level Boston Center
Fri 07:48:13 PM 42.1661 -75.5336 122° Southeast 285 328 13,000  Level Boston Center
Fri 07:49:15 PM 42.1264 -75.4492 122° Southeast 273 314 13,000  Level Boston Center
Fri 07:50:16 PM 42.0867 -75.3611 121° Southeast 273 314 13,000  Level Boston Center
Fri 07:51:17 PM 42.0475 -75.2736 121° Southeast 274 315 13,000 49 Level Boston Center
Fri 07:52:18 PM 42.0125 -75.1767 116° Southeast 281 323 13,100  Climbing Boston Center
Fri 07:53:19 PM 41.9744 -75.0806 118° Southeast 277 319 13,000 -49 Descending Boston Center
Fri 07:54:20 PM 41.9367 -74.9806 117° Southeast 278 320 13,000 -195 Level Boston Center
Fri 07:55:22 PM 41.8944 -74.8989 125° Southeast 268 308 12,600 -780 Descending Boston Center
Fri 07:56:23 PM 41.8397 -74.8328 138° Southeast 265 305 11,400 -1,180 Descending Boston Center
Fri 07:57:24 PM 41.7861 -74.7617 135° Southeast 272 313 10,200 -1,230 Descending Boston Center
Fri 07:58:25 PM 41.7250 -74.6831 136° Southeast 283 326 8,900 -1,230 Descending Boston Center
Fri 07:59:26 PM 41.6669 -74.6047 135° Southeast 297 342 7,700 -934 Descending Boston Center
Fri 08:00:27 PM 41.5997 -74.5589 153° Southeast 278 320 7,000 -689 Descending Boston Center
Fri 08:01:28 PM 41.5333 -74.5692 187° South 244 281 6,300 -488 Descending Boston Center
Fri 08:02:30 PM 41.4606 -74.5819 187° South 246 283 6,000 -146 Descending Boston Center
Fri 08:03:31 PM 41.3944 -74.5956 189° South 242 278 6,000  Level Boston Center
Fri 08:04:19 PM 41.3500 -74.6167 200° South 232 267 6,000  Level New York TRACON
Fri 08:05:19 PM 41.2667 -74.5833 163° South 255 293 6,000  Level New York TRACON
Fri 08:06:18 PM 41.2000 -74.5667 169° South 254 292 6,000 -202 Level New York TRACON
Fri 08:07:18 PM 41.1500 -74.5333 153° Southeast 272 313 5,600 -496 Descending New York TRACON
Fri 08:08:19 PM 41.1000 -74.4500 129° Southeast 279 321 5,000 -313 Descending New York TRACON
Fri 08:09:13 PM 41.0667 -74.3667 118° Southeast 266 306 5,000  Level New York TRACON
Fri 08:10:18 PM 41.0333 -74.2667 114° Southeast 276 318 5,000 -240 Level New York TRACON
Fri 08:11:18 PM 41.0000 -74.1833 118° Southeast 270 311 4,500 -500 Descending New York TRACON
Fri 08:12:18 PM 40.9667 -74.1000 118° Southeast 278 320 4,000 -600 Descending New York TRACON
Fri 08:13:18 PM 40.9167 -74.0333 135° Southeast 244 281 3,300 -496 Descending New York TRACON
Fri 08:14:19 PM 40.8500 -74.0667 201° Southwest 213 245 3,000 -446 Descending New York TRACON
Fri 08:15:19 PM 40.8167 -74.0833 201° Southwest 179 206 2,400 -750 Descending New York TRACON
Fri 08:16:19 PM 40.7667 -74.0833 180° South 176 203 1,500 -550 Descending New York TRACON
Fri 08:17:19 PM 40.7167 -74.0833 180° South 129 148 1,300 -450 Descending New York TRACON
Fri 08:18:19 PM 40.7000 -74.1167 237° Southwest 125 144 600 -700 Descending New York TRACON

Login

Don't have an account? Register now (free) for customized features, flight alerts, and more!